createdAt,value
2018-07-15T00:02:13.771Z,26.90
2018-07-15T00:04:42.203Z,26.90
2018-07-15T00:07:10.613Z,26.80
2018-07-15T00:09:39.090Z,26.80
2018-07-15T00:12:07.739Z,26.80
2018-07-15T00:14:36.150Z,26.80
2018-07-15T00:17:04.476Z,26.80
2018-07-15T00:22:00.832Z,26.70
2018-07-15T00:26:57.236Z,26.70
2018-07-15T00:29:25.547Z,26.70
2018-07-15T00:31:53.831Z,26.60
2018-07-15T00:34:22.195Z,26.60
2018-07-15T00:36:50.531Z,26.60
2018-07-15T00:39:18.902Z,26.60
2018-07-15T00:41:47.150Z,26.60
2018-07-15T00:44:15.571Z,26.60
2018-07-15T00:46:43.800Z,26.50
2018-07-15T00:49:12.131Z,26.50
2018-07-15T00:51:40.471Z,26.50
2018-07-15T00:54:08.854Z,26.40
2018-07-15T00:56:37.254Z,26.40
2018-07-15T00:59:05.674Z,26.40
2018-07-15T01:01:33.940Z,26.40
2018-07-15T01:04:02.247Z,26.30
2018-07-15T01:06:31.245Z,26.30
2018-07-15T01:08:59.608Z,26.30
2018-07-15T01:11:28.032Z,26.30
2018-07-15T01:13:56.462Z,26.30
2018-07-15T01:16:24.768Z,26.30
2018-07-15T01:18:53.045Z,26.30
2018-07-15T01:21:21.414Z,26.20
2018-07-15T01:23:49.885Z,26.20
2018-07-15T01:26:18.199Z,26.20
2018-07-15T01:28:46.521Z,26.10
2018-07-15T01:31:14.998Z,26.10
2018-07-15T01:33:43.461Z,26.10
2018-07-15T01:36:11.812Z,26.00
2018-07-15T01:38:40.178Z,26.10
2018-07-15T01:41:08.679Z,26.00
2018-07-15T01:43:37.239Z,26.00
2018-07-15T01:46:05.697Z,26.00
2018-07-15T01:51:02.147Z,26.00
2018-07-15T01:53:30.536Z,25.90
2018-07-15T01:55:58.915Z,26.00
2018-07-15T01:58:27.287Z,25.90
2018-07-15T02:03:23.754Z,25.90
2018-07-15T02:05:52.223Z,25.90
2018-07-15T02:08:20.567Z,25.80
2018-07-15T02:10:48.913Z,25.90
2018-07-15T02:13:17.287Z,25.80
2018-07-15T02:15:45.863Z,25.80
2018-07-15T02:18:14.243Z,25.80
2018-07-15T02:20:42.703Z,25.80
2018-07-15T02:23:11.166Z,25.80
2018-07-15T02:25:39.523Z,25.70
2018-07-15T02:28:07.828Z,25.70
2018-07-15T02:30:36.317Z,25.70
2018-07-15T02:33:04.779Z,25.70
2018-07-15T02:35:33.141Z,25.60
2018-07-15T02:38:01.552Z,25.60
2018-07-15T02:40:29.827Z,25.50
2018-07-15T02:42:58.174Z,25.60
2018-07-15T02:45:26.543Z,25.50
2018-07-15T02:47:54.984Z,25.50
2018-07-15T02:50:23.559Z,25.50
2018-07-15T02:52:51.864Z,25.50
2018-07-15T02:55:20.287Z,25.50
2018-07-15T02:57:48.724Z,25.40
2018-07-15T03:00:17.116Z,25.40
2018-07-15T03:02:45.396Z,25.40
2018-07-15T03:05:13.920Z,25.40
2018-07-15T03:07:42.330Z,25.40
2018-07-15T03:10:10.725Z,25.30
2018-07-15T03:12:39.115Z,25.30
2018-07-15T03:15:07.616Z,25.30
2018-07-15T03:17:35.911Z,25.30
2018-07-15T03:20:04.284Z,25.30
2018-07-15T03:25:00.767Z,25.30
2018-07-15T03:27:30.459Z,25.20
2018-07-15T03:29:58.928Z,25.20
2018-07-15T03:34:55.413Z,25.20
2018-07-15T03:37:23.863Z,25.20
2018-07-15T03:39:52.317Z,25.10
2018-07-15T03:42:20.711Z,25.10
2018-07-15T03:44:49.060Z,25.10
2018-07-15T03:47:17.467Z,25.10
2018-07-15T03:49:45.900Z,25.00
2018-07-15T03:52:14.211Z,25.00
2018-07-15T03:54:42.647Z,25.00
2018-07-15T03:57:11.124Z,25.00
2018-07-15T03:59:39.852Z,25.00
2018-07-15T04:02:08.137Z,25.00
2018-07-15T04:04:36.482Z,25.00
2018-07-15T04:07:04.935Z,25.00
2018-07-15T04:09:33.410Z,25.00
2018-07-15T04:14:29.854Z,25.00
2018-07-15T04:16:58.247Z,25.00
2018-07-15T04:19:26.656Z,24.90
2018-07-15T04:21:55.258Z,24.90
2018-07-15T04:24:23.739Z,24.90
2018-07-15T04:26:52.179Z,24.90
2018-07-15T04:29:20.504Z,24.90
2018-07-15T04:31:48.979Z,24.90
2018-07-15T04:34:17.352Z,24.80
2018-07-15T04:39:13.767Z,24.80
2018-07-15T04:41:42.112Z,24.80
2018-07-15T04:44:10.531Z,24.80
2018-07-15T04:46:38.794Z,24.80
2018-07-15T04:49:07.075Z,24.80
2018-07-15T04:51:35.412Z,24.70
2018-07-15T04:54:03.748Z,24.80
2018-07-15T04:56:32.127Z,24.70
2018-07-15T04:59:00.485Z,24.70
2018-07-15T05:01:28.931Z,24.80
2018-07-15T05:06:25.435Z,24.80
2018-07-15T05:08:53.631Z,24.80
2018-07-15T05:11:22.168Z,24.80
2018-07-15T05:14:07.131Z,24.80
2018-07-15T05:16:35.737Z,24.80
2018-07-15T05:19:04.144Z,24.80
2018-07-15T05:21:32.565Z,24.80
2018-07-15T05:24:00.897Z,24.80
2018-07-15T05:26:29.307Z,24.80
2018-07-15T05:28:57.719Z,24.80
2018-07-15T05:31:26.052Z,24.80
2018-07-15T05:33:54.476Z,24.90
2018-07-15T05:36:22.938Z,24.90
2018-07-15T05:38:51.304Z,24.90
2018-07-15T05:41:19.715Z,24.90
2018-07-15T05:43:48.152Z,24.90
2018-07-15T05:46:16.558Z,24.90
2018-07-15T05:48:44.919Z,24.90
2018-07-15T05:51:13.303Z,24.90
2018-07-15T05:53:41.734Z,24.90
2018-07-15T05:56:10.145Z,24.90
2018-07-15T05:58:38.440Z,25.00
2018-07-15T06:01:06.884Z,25.00
2018-07-15T06:03:35.337Z,25.00
2018-07-15T06:06:03.784Z,25.00
2018-07-15T06:08:32.255Z,24.90
2018-07-15T06:11:00.536Z,24.90
2018-07-15T06:13:38.748Z,24.90
2018-07-15T06:16:07.216Z,25.00
2018-07-15T06:18:35.439Z,25.00
2018-07-15T06:21:03.891Z,25.00
2018-07-15T06:23:32.296Z,25.00
2018-07-15T06:26:00.692Z,25.00
2018-07-15T06:28:29.175Z,25.10
2018-07-15T06:30:57.495Z,25.10
2018-07-15T06:33:25.872Z,25.10
2018-07-15T06:35:54.215Z,25.20
2018-07-15T06:38:22.585Z,25.20
2018-07-15T06:40:50.923Z,25.30
2018-07-15T06:43:19.431Z,25.30
2018-07-15T06:45:47.827Z,25.30
2018-07-15T06:48:16.194Z,25.30
2018-07-15T06:50:44.468Z,25.40
2018-07-15T06:53:12.961Z,25.40
2018-07-15T06:55:41.303Z,25.40
2018-07-15T06:58:09.786Z,25.40
2018-07-15T07:00:38.124Z,25.50
2018-07-15T07:03:06.427Z,25.50
2018-07-15T07:05:34.751Z,25.50
2018-07-15T07:08:03.232Z,25.60
2018-07-15T07:10:38.915Z,25.60
2018-07-15T07:13:07.352Z,25.50
2018-07-15T07:15:35.821Z,25.60
2018-07-15T07:18:04.255Z,25.60
2018-07-15T07:20:32.694Z,25.60
2018-07-15T07:23:01.151Z,25.60
2018-07-15T07:25:29.540Z,25.60
2018-07-15T07:27:57.987Z,25.60
2018-07-15T07:30:26.368Z,25.70
2018-07-15T07:32:54.755Z,25.70
2018-07-15T07:35:23.119Z,25.70
2018-07-15T07:37:51.613Z,25.70
2018-07-15T07:40:19.957Z,25.70
2018-07-15T07:42:48.347Z,25.80
2018-07-15T07:45:16.620Z,25.80
2018-07-15T07:47:44.910Z,25.80
2018-07-15T07:50:13.293Z,25.90
2018-07-15T07:52:41.692Z,25.80
2018-07-15T07:55:10.155Z,25.90
2018-07-15T07:57:38.592Z,25.90
2018-07-15T08:00:06.963Z,25.90
2018-07-15T08:02:35.255Z,25.90
2018-07-15T08:05:03.659Z,26.00
2018-07-15T08:07:34.069Z,26.00
2018-07-15T08:10:02.513Z,26.00
2018-07-15T08:12:32.791Z,26.10
2018-07-15T08:15:01.136Z,26.10
2018-07-15T08:17:31.431Z,26.10
2018-07-15T08:19:59.720Z,26.10
2018-07-15T08:22:28.122Z,26.20
2018-07-15T08:24:56.436Z,26.20
2018-07-15T08:27:24.815Z,26.20
2018-07-15T08:30:03.960Z,26.20
2018-07-15T08:32:34.309Z,26.30
2018-07-15T08:35:02.741Z,26.30
2018-07-15T08:37:33.056Z,26.30
2018-07-15T08:40:01.504Z,26.40
2018-07-15T08:42:31.872Z,26.40
2018-07-15T08:45:00.168Z,26.40
2018-07-15T08:47:28.616Z,26.40
2018-07-15T08:49:56.998Z,26.50
2018-07-15T08:52:25.432Z,26.60
2018-07-15T08:54:54.379Z,26.50
2018-07-15T08:57:22.804Z,26.60
2018-07-15T08:59:51.251Z,26.60
2018-07-15T09:02:19.656Z,26.70
2018-07-15T09:04:48.096Z,26.70
2018-07-15T09:07:16.435Z,26.70
2018-07-15T09:09:44.831Z,26.80
2018-07-15T09:12:13.288Z,26.80
2018-07-15T09:14:51.983Z,26.80
2018-07-15T09:17:20.417Z,26.80
2018-07-15T09:22:39.344Z,26.90
2018-07-15T09:25:07.820Z,26.90
2018-07-15T09:27:36.131Z,27.00
2018-07-15T09:30:04.552Z,27.00
2018-07-15T09:32:34.818Z,27.00
2018-07-15T09:35:03.268Z,27.00
2018-07-15T09:37:33.584Z,27.10
2018-07-15T09:40:01.953Z,27.10
2018-07-15T09:42:32.239Z,27.10
2018-07-15T09:45:00.616Z,27.20
2018-07-15T09:49:57.091Z,27.20
2018-07-15T09:52:25.402Z,27.30
2018-07-15T09:54:53.804Z,27.30
2018-07-15T09:57:22.224Z,27.30
2018-07-15T09:59:50.534Z,27.40
2018-07-15T10:02:18.911Z,27.40
2018-07-15T10:04:47.315Z,27.40
2018-07-15T10:07:15.803Z,27.50
2018-07-15T10:09:44.925Z,27.50
2018-07-15T10:12:13.740Z,27.50
2018-07-15T10:15:04.938Z,27.50
2018-07-15T10:17:34.921Z,27.50
2018-07-15T10:20:03.541Z,27.60
2018-07-15T10:22:34.029Z,27.70
2018-07-15T10:25:02.643Z,27.80
2018-07-15T10:27:32.961Z,27.80
2018-07-15T10:30:01.974Z,27.80
2018-07-15T10:32:32.387Z,27.90
2018-07-15T10:35:00.898Z,28.00
2018-07-15T10:37:31.357Z,28.00
2018-07-15T10:39:59.843Z,28.00
2018-07-15T10:42:28.618Z,28.00
2018-07-15T10:44:57.372Z,28.00
2018-07-15T10:47:25.984Z,28.00
2018-07-15T10:49:55.042Z,28.00
2018-07-15T10:52:23.516Z,28.00
2018-07-15T10:54:51.772Z,28.10
2018-07-15T10:57:20.237Z,28.20
2018-07-15T10:59:48.974Z,28.20
2018-07-15T11:02:17.411Z,28.30
2018-07-15T11:04:46.047Z,28.30
2018-07-15T11:07:14.439Z,28.40
2018-07-15T11:09:42.958Z,28.50
2018-07-15T11:12:11.306Z,28.50
2018-07-15T11:15:15.501Z,28.50
2018-07-15T11:17:44.424Z,28.60
2018-07-15T11:20:12.847Z,28.60
2018-07-15T11:22:41.328Z,28.70
2018-07-15T11:25:09.983Z,28.70
2018-07-15T11:27:38.654Z,28.70
2018-07-15T11:30:07.556Z,28.80
2018-07-15T11:32:36.091Z,28.80
2018-07-15T11:35:04.621Z,28.80
2018-07-15T11:37:34.842Z,28.90
2018-07-15T11:42:33.473Z,28.90
2018-07-15T11:45:01.968Z,28.90
2018-07-15T11:47:32.336Z,28.90
2018-07-15T11:50:00.952Z,28.90
2018-07-15T11:52:29.383Z,29.10
2018-07-15T11:54:58.249Z,29.10
2018-07-15T11:59:55.152Z,29.20
2018-07-15T12:02:23.476Z,29.20
2018-07-15T12:04:52.076Z,29.20
2018-07-15T12:07:20.532Z,29.30
2018-07-15T12:09:48.882Z,29.30
2018-07-15T12:12:17.194Z,29.30
2018-07-15T12:15:29.263Z,29.30
2018-07-15T12:17:57.603Z,29.40
2018-07-15T12:20:26.110Z,29.30
2018-07-15T12:23:28.958Z,29.40
2018-07-15T12:25:57.395Z,29.50
2018-07-15T12:28:38.556Z,29.60
2018-07-15T12:31:14.316Z,29.70
2018-07-15T12:33:42.657Z,29.60
2018-07-15T12:36:11.138Z,29.70
2018-07-15T12:38:39.635Z,29.80
2018-07-15T12:41:08.193Z,29.80
2018-07-15T12:43:36.659Z,29.80
2018-07-15T12:46:05.029Z,29.90
2018-07-15T12:48:33.287Z,29.90
2018-07-15T12:51:01.786Z,30.00
2018-07-15T12:53:30.275Z,30.00
2018-07-15T12:55:58.666Z,30.00
2018-07-15T12:58:27.309Z,30.00
2018-07-15T13:00:55.820Z,30.10
2018-07-15T13:03:24.235Z,30.00
2018-07-15T13:05:53.470Z,30.10
2018-07-15T13:08:21.940Z,30.10
2018-07-15T13:10:50.332Z,30.20
2018-07-15T13:13:18.764Z,30.10
2018-07-15T13:15:49.896Z,30.20
2018-07-15T13:18:18.340Z,30.20
2018-07-15T13:20:46.731Z,30.20
2018-07-15T13:23:15.179Z,30.30
2018-07-15T13:25:43.430Z,30.30
2018-07-15T13:28:12.651Z,30.30
2018-07-15T13:30:56.475Z,30.40
2018-07-15T13:33:36.593Z,30.40
2018-07-15T13:36:15.737Z,30.40
2018-07-15T13:41:41.968Z,30.50
2018-07-15T13:44:51.303Z,30.60
2018-07-15T13:47:43.480Z,30.60
2018-07-15T13:50:16.631Z,30.50
2018-07-15T13:52:45.043Z,30.50
2018-07-15T13:55:13.509Z,30.60
2018-07-15T13:57:41.838Z,30.60
2018-07-15T14:00:10.240Z,30.60
2018-07-15T14:02:38.670Z,30.70
2018-07-15T14:05:07.186Z,30.70
2018-07-15T14:07:35.588Z,30.80
2018-07-15T14:10:04.093Z,30.90
2018-07-15T14:12:35.838Z,30.90
2018-07-15T14:15:54.822Z,30.90
2018-07-15T14:18:23.220Z,30.90
2018-07-15T14:20:51.639Z,30.90
2018-07-15T14:23:20.013Z,30.90
2018-07-15T14:25:48.448Z,30.90
2018-07-15T14:28:16.904Z,30.90
2018-07-15T14:30:45.294Z,30.90
2018-07-15T14:33:13.709Z,30.90
2018-07-15T14:38:10.634Z,31.00
2018-07-15T14:40:39.172Z,31.10
2018-07-15T14:43:07.831Z,31.00
2018-07-15T14:45:42.827Z,31.10
2018-07-15T14:48:11.226Z,31.00
2018-07-15T14:50:39.995Z,31.00
2018-07-15T14:53:08.471Z,31.00
2018-07-15T14:55:37.509Z,31.00
2018-07-15T14:58:07.191Z,31.00
2018-07-15T15:00:36.324Z,31.00
2018-07-15T15:03:05.210Z,31.00
2018-07-15T15:05:33.874Z,31.10
2018-07-15T15:08:03.207Z,31.00
2018-07-15T15:10:40.071Z,31.10
2018-07-15T15:13:09.186Z,31.10
2018-07-15T15:16:09.158Z,31.10
2018-07-15T15:18:38.235Z,31.10
2018-07-15T15:21:07.467Z,31.10
2018-07-15T15:23:36.548Z,31.10
2018-07-15T15:26:05.623Z,31.00
2018-07-15T15:28:34.774Z,31.00
2018-07-15T15:31:03.899Z,31.00
2018-07-15T15:33:32.894Z,30.90
2018-07-15T15:36:01.481Z,31.00
2018-07-15T15:38:31.303Z,31.00
2018-07-15T15:41:00.383Z,30.90
2018-07-15T15:43:29.587Z,30.90
2018-07-15T15:45:58.635Z,30.90
2018-07-15T15:48:27.785Z,30.80
2018-07-15T15:50:56.467Z,30.80
2018-07-15T15:53:25.612Z,30.70
2018-07-15T15:55:54.492Z,30.70
2018-07-15T16:00:51.830Z,30.60
2018-07-15T16:03:20.948Z,30.60
2018-07-15T16:05:50.130Z,30.60
2018-07-15T16:08:19.415Z,30.60
2018-07-15T16:10:48.714Z,30.50
2018-07-15T16:13:17.710Z,30.40
2018-07-15T16:16:21.311Z,30.30
2018-07-15T16:18:50.464Z,30.10
2018-07-15T16:21:19.539Z,29.90
2018-07-15T16:23:48.767Z,29.70
2018-07-15T16:26:18.000Z,29.70
2018-07-15T16:28:47.035Z,29.60
2018-07-15T16:31:16.236Z,29.60
2018-07-15T16:33:45.188Z,29.50
2018-07-15T16:38:42.838Z,29.50
2018-07-15T16:41:11.978Z,29.40
2018-07-15T16:43:41.142Z,29.40
2018-07-15T16:46:10.160Z,29.40
2018-07-15T16:48:39.190Z,29.30
2018-07-15T16:51:07.784Z,29.40
2018-07-15T16:53:36.923Z,29.30
2018-07-15T16:56:06.249Z,29.30
2018-07-15T16:58:35.294Z,29.30
2018-07-15T17:01:04.115Z,29.40
2018-07-15T17:03:32.801Z,29.30
2018-07-15T17:06:01.292Z,29.30
2018-07-15T17:08:29.658Z,29.30
2018-07-15T17:10:58.433Z,29.30
2018-07-15T17:13:26.807Z,29.30
2018-07-15T17:16:28.491Z,29.20
2018-07-15T17:18:56.899Z,29.30
2018-07-15T17:21:25.206Z,29.20
2018-07-15T17:23:53.659Z,29.20
2018-07-15T17:26:22.123Z,29.20
2018-07-15T17:28:50.799Z,29.20
2018-07-15T17:31:19.211Z,29.20
2018-07-15T17:33:48.016Z,29.20
2018-07-15T17:36:16.701Z,29.20
2018-07-15T17:38:45.242Z,29.20
2018-07-15T17:41:13.684Z,29.10
2018-07-15T17:43:42.274Z,29.10
2018-07-15T17:46:10.797Z,29.10
2018-07-15T17:48:39.414Z,29.00
2018-07-15T17:51:08.332Z,29.00
2018-07-15T17:53:37.306Z,28.90
2018-07-15T17:56:05.874Z,28.90
2018-07-15T17:58:34.352Z,28.90
2018-07-15T18:01:03.172Z,28.90
2018-07-15T18:06:00.155Z,28.90
2018-07-15T18:08:28.823Z,28.80
2018-07-15T18:10:57.695Z,28.70
2018-07-15T18:13:26.208Z,28.80
2018-07-15T18:16:37.071Z,28.70
2018-07-15T18:19:06.122Z,28.70
2018-07-15T18:21:35.051Z,28.60
2018-07-15T18:24:04.045Z,28.60
2018-07-15T18:26:32.574Z,28.50
2018-07-15T18:29:01.236Z,28.50
2018-07-15T18:31:30.275Z,28.50
2018-07-15T18:33:59.122Z,28.40
2018-07-15T18:38:56.467Z,28.30
2018-07-15T18:41:25.600Z,28.30
2018-07-15T18:43:54.740Z,28.30
2018-07-15T18:46:23.821Z,28.30
2018-07-15T18:48:52.851Z,28.20
2018-07-15T18:51:21.916Z,28.20
2018-07-15T18:53:51.136Z,28.20
2018-07-15T18:56:20.235Z,28.20
2018-07-15T19:01:18.328Z,28.10
2018-07-15T19:03:47.485Z,28.00
2018-07-15T19:06:16.631Z,28.00
2018-07-15T19:08:45.855Z,28.00
2018-07-15T19:11:15.058Z,28.00
2018-07-15T19:14:30.136Z,28.00
2018-07-15T19:16:59.484Z,27.90
2018-07-15T19:19:28.582Z,27.90
2018-07-15T19:21:57.716Z,27.90
2018-07-15T19:24:26.947Z,27.80
2018-07-15T19:26:55.983Z,27.80
2018-07-15T19:29:25.201Z,27.80
2018-07-15T19:31:54.272Z,27.80
2018-07-15T19:34:23.600Z,27.70
2018-07-15T19:36:52.715Z,27.70
2018-07-15T19:39:22.000Z,27.70
2018-07-15T19:41:51.227Z,27.70
2018-07-15T19:44:20.451Z,27.70
2018-07-15T19:46:49.593Z,27.60
2018-07-15T19:49:18.706Z,27.60
2018-07-15T19:51:47.852Z,27.60
2018-07-15T19:54:17.013Z,27.50
2018-07-15T19:56:46.103Z,27.50
2018-07-15T19:59:16.296Z,27.50
2018-07-15T20:01:45.363Z,27.40
2018-07-15T20:09:11.904Z,27.40
2018-07-15T20:11:41.159Z,27.40
2018-07-15T20:14:51.881Z,27.30
2018-07-15T20:17:21.072Z,27.30
2018-07-15T20:19:50.232Z,27.30
2018-07-15T20:22:19.388Z,27.30
2018-07-15T20:25:13.381Z,27.30
2018-07-15T20:28:10.456Z,27.30
2018-07-15T20:30:39.598Z,27.20
2018-07-15T20:33:08.791Z,27.20
2018-07-15T20:35:38.068Z,27.20
2018-07-15T20:38:07.260Z,27.20
2018-07-15T20:40:36.389Z,27.10
2018-07-15T20:43:05.485Z,27.10
2018-07-15T20:45:34.598Z,27.10
2018-07-15T20:48:03.716Z,27.10
2018-07-15T20:50:32.859Z,27.10
2018-07-15T20:55:30.211Z,27.00
2018-07-15T20:57:58.919Z,27.00
2018-07-15T21:00:27.556Z,27.00
2018-07-15T21:02:56.016Z,27.00
2018-07-15T21:05:24.771Z,27.00
2018-07-15T21:07:53.387Z,26.90
2018-07-15T21:10:22.166Z,26.90
2018-07-15T21:12:50.513Z,26.90
2018-07-15T21:18:59.891Z,26.90
2018-07-15T21:23:56.359Z,26.80
2018-07-15T21:31:21.085Z,26.80
2018-07-15T21:33:49.456Z,26.80
2018-07-15T21:36:18.823Z,26.80
2018-07-15T21:38:47.316Z,26.80
2018-07-15T21:41:15.660Z,26.80
2018-07-15T21:43:43.999Z,26.70
2018-07-15T21:46:12.350Z,26.70
2018-07-15T21:48:40.595Z,26.70
2018-07-15T21:51:09.014Z,26.70
2018-07-15T21:53:37.468Z,26.70
2018-07-15T21:56:05.852Z,26.70
2018-07-15T21:58:34.152Z,26.70
2018-07-15T22:01:02.645Z,26.70
2018-07-15T22:03:31.063Z,26.70
2018-07-15T22:05:59.523Z,26.70
2018-07-15T22:08:38.933Z,26.70
2018-07-15T22:11:07.380Z,26.70
2018-07-15T22:16:03.916Z,26.70
2018-07-15T22:18:32.399Z,26.70
2018-07-15T22:21:00.767Z,26.70
2018-07-15T22:23:29.174Z,26.70
2018-07-15T22:25:57.475Z,26.70
2018-07-15T22:28:25.835Z,26.70
2018-07-15T22:33:22.318Z,26.70
2018-07-15T22:35:50.566Z,26.70
2018-07-15T22:38:18.983Z,26.60
2018-07-15T22:40:47.427Z,26.60
2018-07-15T22:45:43.972Z,26.60
2018-07-15T22:48:12.391Z,26.60
